sensor_id;sensor_type;location;lat;lon;timestamp;P1;durP1;ratioP1;P2;durP2;ratioP2
8913;SDS011;4492;48.736;9.092;2023-02-01T00:01:53;4.93;;;3.73;;
8913;SDS011;4492;48.736;9.092;2023-02-01T00:04:19;3.70;;;3.27;;
8913;SDS011;4492;48.736;9.092;2023-02-01T00:06:44;4.37;;;3.20;;
8913;SDS011;4492;48.736;9.092;2023-02-01T00:09:10;3.90;;;3.20;;
8913;SDS011;4492;48.736;9.092;2023-02-01T00:11:35;3.90;;;3.00;;
8913;SDS011;4492;48.736;9.092;2023-02-01T00:14:01;3.43;;;3.13;;
8913;SDS011;4492;48.736;9.092;2023-02-01T00:16:28;3.73;;;2.90;;
8913;SDS011;4492;48.736;9.092;2023-02-01T00:18:59;4.77;;;3.20;;
8913;SDS011;4492;48.736;9.092;2023-02-01T00:21:29;5.50;;;3.10;;
8913;SDS011;4492;48.736;9.092;2023-02-01T00:23:55;3.57;;;3.03;;
8913;SDS011;4492;48.736;9.092;2023-02-01T00:26:26;4.67;;;3.03;;
8913;SDS011;4492;48.736;9.092;2023-02-01T00:29:00;4.43;;;3.50;;
8913;SDS011;4492;48.736;9.092;2023-02-01T00:31:27;3.83;;;3.30;;
8913;SDS011;4492;48.736;9.092;2023-02-01T00:33:53;4.17;;;3.23;;
8913;SDS011;4492;48.736;9.092;2023-02-01T00:36:18;3.83;;;3.17;;
8913;SDS011;4492;48.736;9.092;2023-02-01T00:38:44;5.73;;;2.77;;
8913;SDS011;4492;48.736;9.092;2023-02-01T00:41:10;4.23;;;2.60;;
8913;SDS011;4492;48.736;9.092;2023-02-01T00:43:38;4.33;;;3.10;;
8913;SDS011;4492;48.736;9.092;2023-02-01T00:46:04;3.73;;;3.00;;
8913;SDS011;4492;48.736;9.092;2023-02-01T00:48:30;4.67;;;2.90;;
8913;SDS011;4492;48.736;9.092;2023-02-01T00:51:03;7.47;;;2.90;;
8913;SDS011;4492;48.736;9.092;2023-02-01T00:53:31;4.13;;;3.10;;
8913;SDS011;4492;48.736;9.092;2023-02-01T00:55:57;3.80;;;3.10;;
8913;SDS011;4492;48.736;9.092;2023-02-01T00:58:22;3.17;;;2.83;;
8913;SDS011;4492;48.736;9.092;2023-02-01T01:03:31;6.50;;;2.63;;
8913;SDS011;4492;48.736;9.092;2023-02-01T01:06:02;4.10;;;2.63;;
8913;SDS011;4492;48.736;9.092;2023-02-01T01:08:30;3.00;;;2.70;;
8913;SDS011;4492;48.736;9.092;2023-02-01T01:10:55;4.40;;;2.40;;
8913;SDS011;4492;48.736;9.092;2023-02-01T01:13:21;2.43;;;2.20;;
8913;SDS011;4492;48.736;9.092;2023-02-01T01:15:47;3.80;;;2.40;;
8913;SDS011;4492;48.736;9.092;2023-02-01T01:18:12;2.30;;;1.97;;
8913;SDS011;4492;48.736;9.092;2023-02-01T01:20:39;2.20;;;1.87;;
8913;SDS011;4492;48.736;9.092;2023-02-01T01:23:06;4.03;;;1.97;;
8913;SDS011;4492;48.736;9.092;2023-02-01T01:25:36;2.77;;;2.20;;
8913;SDS011;4492;48.736;9.092;2023-02-01T01:28:05;2.50;;;2.17;;
8913;SDS011;4492;48.736;9.092;2023-02-01T01:30:31;2.43;;;2.17;;
8913;SDS011;4492;48.736;9.092;2023-02-01T01:32:58;2.00;;;1.77;;
8913;SDS011;4492;48.736;9.092;2023-02-01T01:35:24;2.90;;;2.00;;
8913;SDS011;4492;48.736;9.092;2023-02-01T01:37:49;2.17;;;1.97;;
8913;SDS011;4492;48.736;9.092;2023-02-01T01:40:15;3.47;;;2.20;;
8913;SDS011;4492;48.736;9.092;2023-02-01T01:42:41;2.07;;;1.90;;
8913;SDS011;4492;48.736;9.092;2023-02-01T01:45:19;2.20;;;2.00;;
8913;SDS011;4492;48.736;9.092;2023-02-01T01:47:47;2.90;;;2.30;;
8913;SDS011;4492;48.736;9.092;2023-02-01T01:50:16;4.70;;;2.20;;
8913;SDS011;4492;48.736;9.092;2023-02-01T01:52:46;2.70;;;2.50;;
8913;SDS011;4492;48.736;9.092;2023-02-01T01:55:14;2.90;;;2.40;;
8913;SDS011;4492;48.736;9.092;2023-02-01T01:57:42;4.03;;;2.63;;
8913;SDS011;4492;48.736;9.092;2023-02-01T02:00:12;3.80;;;2.80;;
8913;SDS011;4492;48.736;9.092;2023-02-01T02:02:41;4.13;;;2.77;;
8913;SDS011;4492;48.736;9.092;2023-02-01T02:05:09;3.40;;;2.70;;
8913;SDS011;4492;48.736;9.092;2023-02-01T02:07:37;5.67;;;3.27;;
8913;SDS011;4492;48.736;9.092;2023-02-01T02:10:07;3.80;;;2.77;;
8913;SDS011;4492;48.736;9.092;2023-02-01T02:12:38;5.43;;;3.23;;
8913;SDS011;4492;48.736;9.092;2023-02-01T02:15:06;4.00;;;3.10;;
8913;SDS011;4492;48.736;9.092;2023-02-01T02:28:46;2.83;;;2.63;;
8913;SDS011;4492;48.736;9.092;2023-02-01T02:39:41;4.60;;;2.70;;
8913;SDS011;4492;48.736;9.092;2023-02-01T02:42:17;5.77;;;3.07;;
8913;SDS011;4492;48.736;9.092;2023-02-01T02:45:13;5.57;;;3.10;;
8913;SDS011;4492;48.736;9.092;2023-02-01T02:50:41;3.10;;;2.50;;
8913;SDS011;4492;48.736;9.092;2023-02-01T02:53:35;4.17;;;2.70;;
8913;SDS011;4492;48.736;9.092;2023-02-01T02:56:34;3.80;;;3.10;;
8913;SDS011;4492;48.736;9.092;2023-02-01T02:59:21;2.80;;;2.50;;
8913;SDS011;4492;48.736;9.092;2023-02-01T03:02:09;4.83;;;3.07;;
8913;SDS011;4492;48.736;9.092;2023-02-01T03:04:55;3.83;;;3.13;;
8913;SDS011;4492;48.736;9.092;2023-02-01T03:13:06;5.60;;;2.90;;
8913;SDS011;4492;48.736;9.092;2023-02-01T03:15:39;4.07;;;3.00;;
8913;SDS011;4492;48.736;9.092;2023-02-01T03:18:15;3.63;;;2.93;;
8913;SDS011;4492;48.736;9.092;2023-02-01T03:20:47;3.13;;;2.73;;
8913;SDS011;4492;48.736;9.092;2023-02-01T03:23:16;6.87;;;3.10;;
8913;SDS011;4492;48.736;9.092;2023-02-01T03:25:47;4.03;;;2.90;;
8913;SDS011;4492;48.736;9.092;2023-02-01T03:28:15;3.33;;;2.97;;
8913;SDS011;4492;48.736;9.092;2023-02-01T03:30:46;2.93;;;2.70;;
8913;SDS011;4492;48.736;9.092;2023-02-01T03:33:13;6.23;;;2.87;;
8913;SDS011;4492;48.736;9.092;2023-02-01T03:38:45;4.07;;;2.60;;
8913;SDS011;4492;48.736;9.092;2023-02-01T03:41:43;3.20;;;2.90;;
8913;SDS011;4492;48.736;9.092;2023-02-01T03:44:16;4.37;;;3.13;;
8913;SDS011;4492;48.736;9.092;2023-02-01T03:46:51;5.47;;;3.27;;
8913;SDS011;4492;48.736;9.092;2023-02-01T03:49:22;3.20;;;2.90;;
8913;SDS011;4492;48.736;9.092;2023-02-01T03:51:54;4.87;;;2.60;;
8913;SDS011;4492;48.736;9.092;2023-02-01T03:54:22;3.60;;;2.80;;
8913;SDS011;4492;48.736;9.092;2023-02-01T03:56:50;5.83;;;2.80;;
8913;SDS011;4492;48.736;9.092;2023-02-01T03:59:19;3.53;;;2.70;;
8913;SDS011;4492;48.736;9.092;2023-02-01T04:01:44;5.17;;;2.90;;
8913;SDS011;4492;48.736;9.092;2023-02-01T04:04:10;3.20;;;2.67;;
8913;SDS011;4492;48.736;9.092;2023-02-01T04:06:44;2.70;;;2.50;;
8913;SDS011;4492;48.736;9.092;2023-02-01T04:09:14;4.07;;;2.67;;
8913;SDS011;4492;48.736;9.092;2023-02-01T04:11:39;3.00;;;2.40;;
8913;SDS011;4492;48.736;9.092;2023-02-01T04:14:05;4.13;;;2.50;;
8913;SDS011;4492;48.736;9.092;2023-02-01T04:16:31;2.80;;;2.20;;
8913;SDS011;4492;48.736;9.092;2023-02-01T04:18:57;3.23;;;2.13;;
8913;SDS011;4492;48.736;9.092;2023-02-01T04:21:23;3.40;;;2.30;;
8913;SDS011;4492;48.736;9.092;2023-02-01T04:23:49;4.57;;;2.80;;
8913;SDS011;4492;48.736;9.092;2023-02-01T04:26:15;2.33;;;2.13;;
8913;SDS011;4492;48.736;9.092;2023-02-01T04:28:41;2.93;;;1.90;;
8913;SDS011;4492;48.736;9.092;2023-02-01T04:31:07;2.57;;;2.10;;
8913;SDS011;4492;48.736;9.092;2023-02-01T04:33:33;5.87;;;2.40;;
8913;SDS011;4492;48.736;9.092;2023-02-01T04:35:58;3.90;;;2.27;;
8913;SDS011;4492;48.736;9.092;2023-02-01T04:38:24;3.37;;;2.57;;
8913;SDS011;4492;48.736;9.092;2023-02-01T04:40:51;2.67;;;2.10;;
8913;SDS011;4492;48.736;9.092;2023-02-01T04:43:17;2.47;;;2.27;;
8913;SDS011;4492;48.736;9.092;2023-02-01T04:45:46;4.13;;;2.40;;
8913;SDS011;4492;48.736;9.092;2023-02-01T04:48:13;2.97;;;2.40;;
8913;SDS011;4492;48.736;9.092;2023-02-01T04:50:40;2.53;;;2.30;;
8913;SDS011;4492;48.736;9.092;2023-02-01T04:53:05;2.87;;;2.57;;
8913;SDS011;4492;48.736;9.092;2023-02-01T04:55:31;2.97;;;2.30;;
8913;SDS011;4492;48.736;9.092;2023-02-01T04:57:56;2.73;;;2.53;;
8913;SDS011;4492;48.736;9.092;2023-02-01T05:00:22;2.63;;;2.43;;
8913;SDS011;4492;48.736;9.092;2023-02-01T05:02:47;3.70;;;2.97;;
8913;SDS011;4492;48.736;9.092;2023-02-01T05:05:13;4.13;;;2.23;;
8913;SDS011;4492;48.736;9.092;2023-02-01T05:07:39;3.03;;;2.30;;
8913;SDS011;4492;48.736;9.092;2023-02-01T05:10:04;2.53;;;2.30;;
8913;SDS011;4492;48.736;9.092;2023-02-01T05:12:30;2.67;;;2.47;;
8913;SDS011;4492;48.736;9.092;2023-02-01T05:15:14;3.90;;;2.40;;
8913;SDS011;4492;48.736;9.092;2023-02-01T05:17:40;4.20;;;2.80;;
8913;SDS011;4492;48.736;9.092;2023-02-01T05:20:06;3.40;;;2.60;;
8913;SDS011;4492;48.736;9.092;2023-02-01T05:22:32;3.63;;;2.50;;
8913;SDS011;4492;48.736;9.092;2023-02-01T05:24:58;3.10;;;2.33;;
8913;SDS011;4492;48.736;9.092;2023-02-01T05:27:23;4.13;;;2.50;;
8913;SDS011;4492;48.736;9.092;2023-02-01T05:29:49;4.97;;;2.43;;
8913;SDS011;4492;48.736;9.092;2023-02-01T05:32:14;4.53;;;2.70;;
8913;SDS011;4492;48.736;9.092;2023-02-01T05:34:40;2.53;;;2.33;;
8913;SDS011;4492;48.736;9.092;2023-02-01T05:37:05;4.07;;;2.60;;
8913;SDS011;4492;48.736;9.092;2023-02-01T05:39:31;3.87;;;2.53;;
8913;SDS011;4492;48.736;9.092;2023-02-01T05:41:56;2.70;;;2.27;;
8913;SDS011;4492;48.736;9.092;2023-02-01T05:44:22;3.20;;;2.50;;
8913;SDS011;4492;48.736;9.092;2023-02-01T05:46:47;3.43;;;2.50;;
8913;SDS011;4492;48.736;9.092;2023-02-01T05:49:13;2.70;;;2.50;;
8913;SDS011;4492;48.736;9.092;2023-02-01T05:51:38;2.57;;;2.37;;
8913;SDS011;4492;48.736;9.092;2023-02-01T05:54:04;6.10;;;2.60;;
8913;SDS011;4492;48.736;9.092;2023-02-01T05:56:29;5.57;;;3.10;;
8913;SDS011;4492;48.736;9.092;2023-02-01T05:58:55;3.00;;;2.40;;
8913;SDS011;4492;48.736;9.092;2023-02-01T06:01:21;3.17;;;2.30;;
8913;SDS011;4492;48.736;9.092;2023-02-01T06:03:46;2.87;;;2.67;;
8913;SDS011;4492;48.736;9.092;2023-02-01T06:06:12;3.00;;;2.07;;
8913;SDS011;4492;48.736;9.092;2023-02-01T06:08:37;6.73;;;2.60;;
8913;SDS011;4492;48.736;9.092;2023-02-01T06:11:06;4.93;;;2.57;;
8913;SDS011;4492;48.736;9.092;2023-02-01T06:13:32;7.20;;;2.30;;
8913;SDS011;4492;48.736;9.092;2023-02-01T06:15:58;6.23;;;2.50;;
8913;SDS011;4492;48.736;9.092;2023-02-01T06:18:24;5.77;;;2.17;;
8913;SDS011;4492;48.736;9.092;2023-02-01T06:20:56;4.33;;;2.67;;
8913;SDS011;4492;48.736;9.092;2023-02-01T06:23:25;8.80;;;2.60;;
8913;SDS011;4492;48.736;9.092;2023-02-01T06:25:51;5.60;;;2.50;;
8913;SDS011;4492;48.736;9.092;2023-02-01T06:28:17;5.27;;;3.27;;
8913;SDS011;4492;48.736;9.092;2023-02-01T06:30:43;2.83;;;2.47;;
8913;SDS011;4492;48.736;9.092;2023-02-01T06:33:11;7.27;;;2.53;;
8913;SDS011;4492;48.736;9.092;2023-02-01T06:35:40;6.50;;;2.90;;
8913;SDS011;4492;48.736;9.092;2023-02-01T06:38:09;7.17;;;2.50;;
8913;SDS011;4492;48.736;9.092;2023-02-01T06:40:36;3.27;;;2.50;;
8913;SDS011;4492;48.736;9.092;2023-02-01T06:43:02;8.03;;;2.93;;
8913;SDS011;4492;48.736;9.092;2023-02-01T06:45:27;4.23;;;2.70;;
8913;SDS011;4492;48.736;9.092;2023-02-01T06:47:53;3.97;;;2.60;;
8913;SDS011;4492;48.736;9.092;2023-02-01T06:50:18;5.47;;;2.80;;
8913;SDS011;4492;48.736;9.092;2023-02-01T06:52:44;5.67;;;2.80;;
8913;SDS011;4492;48.736;9.092;2023-02-01T06:55:09;5.27;;;2.73;;
8913;SDS011;4492;48.736;9.092;2023-02-01T06:57:35;4.73;;;2.63;;
8913;SDS011;4492;48.736;9.092;2023-02-01T07:00:01;6.57;;;2.80;;
8913;SDS011;4492;48.736;9.092;2023-02-01T07:02:28;7.70;;;2.67;;
8913;SDS011;4492;48.736;9.092;2023-02-01T07:04:53;5.27;;;3.07;;
8913;SDS011;4492;48.736;9.092;2023-02-01T07:07:19;6.90;;;3.17;;
8913;SDS011;4492;48.736;9.092;2023-02-01T07:09:47;4.30;;;2.30;;
8913;SDS011;4492;48.736;9.092;2023-02-01T07:12:13;5.20;;;2.50;;
8913;SDS011;4492;48.736;9.092;2023-02-01T07:14:39;5.63;;;2.60;;
8913;SDS011;4492;48.736;9.092;2023-02-01T07:17:04;5.10;;;2.87;;
8913;SDS011;4492;48.736;9.092;2023-02-01T07:19:30;6.47;;;2.67;;
8913;SDS011;4492;48.736;9.092;2023-02-01T07:21:55;2.27;;;2.07;;
8913;SDS011;4492;48.736;9.092;2023-02-01T07:24:21;2.83;;;2.47;;
8913;SDS011;4492;48.736;9.092;2023-02-01T07:26:47;7.30;;;2.30;;
8913;SDS011;4492;48.736;9.092;2023-02-01T07:29:12;3.00;;;2.57;;
8913;SDS011;4492;48.736;9.092;2023-02-01T07:31:38;5.20;;;2.27;;
8913;SDS011;4492;48.736;9.092;2023-02-01T07:34:04;5.50;;;2.30;;
8913;SDS011;4492;48.736;9.092;2023-02-01T07:36:30;6.20;;;2.20;;
8913;SDS011;4492;48.736;9.092;2023-02-01T07:38:55;2.33;;;1.83;;
8913;SDS011;4492;48.736;9.092;2023-02-01T07:41:22;4.20;;;2.07;;
8913;SDS011;4492;48.736;9.092;2023-02-01T07:43:48;3.77;;;2.50;;
8913;SDS011;4492;48.736;9.092;2023-02-01T07:46:15;7.57;;;2.83;;
8913;SDS011;4492;48.736;9.092;2023-02-01T07:48:41;4.63;;;2.30;;
8913;SDS011;4492;48.736;9.092;2023-02-01T07:51:11;7.77;;;2.30;;
8913;SDS011;4492;48.736;9.092;2023-02-01T07:53:39;5.43;;;2.13;;
8913;SDS011;4492;48.736;9.092;2023-02-01T07:56:09;5.43;;;2.17;;
8913;SDS011;4492;48.736;9.092;2023-02-01T07:58:43;5.23;;;2.60;;
8913;SDS011;4492;48.736;9.092;2023-02-01T08:01:15;7.67;;;2.57;;
8913;SDS011;4492;48.736;9.092;2023-02-01T08:03:45;5.57;;;2.43;;
8913;SDS011;4492;48.736;9.092;2023-02-01T08:06:25;3.03;;;2.40;;
8913;SDS011;4492;48.736;9.092;2023-02-01T08:08:53;2.93;;;2.00;;
8913;SDS011;4492;48.736;9.092;2023-02-01T08:11:19;5.43;;;2.20;;
8913;SDS011;4492;48.736;9.092;2023-02-01T08:13:46;5.70;;;2.40;;
8913;SDS011;4492;48.736;9.092;2023-02-01T08:16:12;5.67;;;2.50;;
8913;SDS011;4492;48.736;9.092;2023-02-01T08:18:40;5.87;;;2.10;;
8913;SDS011;4492;48.736;9.092;2023-02-01T08:21:14;4.17;;;1.87;;
8913;SDS011;4492;48.736;9.092;2023-02-01T08:23:41;7.50;;;2.20;;
8913;SDS011;4492;48.736;9.092;2023-02-01T08:28:40;5.47;;;2.30;;
8913;SDS011;4492;48.736;9.092;2023-02-01T08:31:08;6.93;;;2.23;;
8913;SDS011;4492;48.736;9.092;2023-02-01T08:33:36;4.83;;;2.30;;
8913;SDS011;4492;48.736;9.092;2023-02-01T08:36:03;7.07;;;2.37;;
8913;SDS011;4492;48.736;9.092;2023-02-01T08:38:30;4.97;;;2.20;;
8913;SDS011;4492;48.736;9.092;2023-02-01T08:40:55;3.93;;;2.50;;
8913;SDS011;4492;48.736;9.092;2023-02-01T08:43:21;4.43;;;2.47;;
8913;SDS011;4492;48.736;9.092;2023-02-01T08:45:47;4.50;;;2.90;;
8913;SDS011;4492;48.736;9.092;2023-02-01T08:48:12;6.47;;;2.70;;
8913;SDS011;4492;48.736;9.092;2023-02-01T08:50:38;3.40;;;2.17;;
8913;SDS011;4492;48.736;9.092;2023-02-01T08:53:03;6.23;;;2.40;;
8913;SDS011;4492;48.736;9.092;2023-02-01T08:55:29;6.17;;;2.27;;
8913;SDS011;4492;48.736;9.092;2023-02-01T08:57:55;5.00;;;2.73;;
8913;SDS011;4492;48.736;9.092;2023-02-01T09:00:21;12.37;;;2.50;;
8913;SDS011;4492;48.736;9.092;2023-02-01T09:02:47;10.17;;;2.40;;
8913;SDS011;4492;48.736;9.092;2023-02-01T09:05:12;9.47;;;2.50;;
8913;SDS011;4492;48.736;9.092;2023-02-01T09:07:39;5.83;;;2.07;;
8913;SDS011;4492;48.736;9.092;2023-02-01T09:10:05;3.33;;;1.93;;
8913;SDS011;4492;48.736;9.092;2023-02-01T09:12:31;5.77;;;2.27;;
8913;SDS011;4492;48.736;9.092;2023-02-01T09:14:58;5.43;;;1.70;;
8913;SDS011;4492;48.736;9.092;2023-02-01T09:17:28;5.57;;;2.10;;
8913;SDS011;4492;48.736;9.092;2023-02-01T09:19:54;6.53;;;2.33;;
8913;SDS011;4492;48.736;9.092;2023-02-01T09:22:20;7.13;;;1.90;;
8913;SDS011;4492;48.736;9.092;2023-02-01T09:24:46;8.50;;;2.20;;
8913;SDS011;4492;48.736;9.092;2023-02-01T09:27:11;5.33;;;1.80;;
8913;SDS011;4492;48.736;9.092;2023-02-01T09:29:37;5.33;;;2.10;;
8913;SDS011;4492;48.736;9.092;2023-02-01T09:32:02;6.53;;;1.80;;
8913;SDS011;4492;48.736;9.092;2023-02-01T09:34:28;7.77;;;2.40;;
8913;SDS011;4492;48.736;9.092;2023-02-01T09:36:54;5.50;;;2.20;;
8913;SDS011;4492;48.736;9.092;2023-02-01T09:39:19;8.07;;;2.60;;
8913;SDS011;4492;48.736;9.092;2023-02-01T09:41:51;8.90;;;2.03;;
8913;SDS011;4492;48.736;9.092;2023-02-01T09:44:49;12.27;;;2.77;;
8913;SDS011;4492;48.736;9.092;2023-02-01T09:47:38;9.70;;;2.13;;
8913;SDS011;4492;48.736;9.092;2023-02-01T09:50:19;8.80;;;2.33;;
8913;SDS011;4492;48.736;9.092;2023-02-01T09:53:06;7.30;;;2.10;;
8913;SDS011;4492;48.736;9.092;2023-02-01T09:55:45;14.17;;;2.87;;
8913;SDS011;4492;48.736;9.092;2023-02-01T09:58:15;8.00;;;2.47;;
8913;SDS011;4492;48.736;9.092;2023-02-01T10:00:54;8.47;;;2.03;;
8913;SDS011;4492;48.736;9.092;2023-02-01T10:03:29;6.00;;;1.90;;
8913;SDS011;4492;48.736;9.092;2023-02-01T10:16:34;5.97;;;2.10;;
8913;SDS011;4492;48.736;9.092;2023-02-01T10:19:17;10.17;;;2.13;;
8913;SDS011;4492;48.736;9.092;2023-02-01T10:22:21;8.60;;;2.20;;
8913;SDS011;4492;48.736;9.092;2023-02-01T10:28:00;6.07;;;1.80;;
8913;SDS011;4492;48.736;9.092;2023-02-01T10:30:30;8.33;;;1.90;;
8913;SDS011;4492;48.736;9.092;2023-02-01T10:33:07;7.37;;;2.20;;
8913;SDS011;4492;48.736;9.092;2023-02-01T10:35:46;9.73;;;2.40;;
8913;SDS011;4492;48.736;9.092;2023-02-01T10:38:27;7.10;;;2.07;;
8913;SDS011;4492;48.736;9.092;2023-02-01T10:40:55;7.67;;;1.67;;
8913;SDS011;4492;48.736;9.092;2023-02-01T10:43:25;6.00;;;1.63;;
8913;SDS011;4492;48.736;9.092;2023-02-01T10:45:51;10.37;;;1.90;;
8913;SDS011;4492;48.736;9.092;2023-02-01T10:48:16;11.20;;;2.53;;
8913;SDS011;4492;48.736;9.092;2023-02-01T10:50:50;10.63;;;1.87;;
8913;SDS011;4492;48.736;9.092;2023-02-01T10:55:51;10.80;;;1.73;;
8913;SDS011;4492;48.736;9.092;2023-02-01T10:58:19;5.83;;;1.70;;
8913;SDS011;4492;48.736;9.092;2023-02-01T11:00:54;5.97;;;1.80;;
8913;SDS011;4492;48.736;9.092;2023-02-01T11:03:38;10.17;;;2.20;;
8913;SDS011;4492;48.736;9.092;2023-02-01T11:08:41;10.53;;;2.20;;
8913;SDS011;4492;48.736;9.092;2023-02-01T11:11:12;6.83;;;1.57;;
8913;SDS011;4492;48.736;9.092;2023-02-01T11:13:38;5.47;;;1.53;;
8913;SDS011;4492;48.736;9.092;2023-02-01T11:16:05;8.37;;;2.07;;
8913;SDS011;4492;48.736;9.092;2023-02-01T11:18:34;10.40;;;2.00;;
8913;SDS011;4492;48.736;9.092;2023-02-01T11:21:02;6.53;;;1.63;;
8913;SDS011;4492;48.736;9.092;2023-02-01T11:23:29;9.17;;;2.10;;
8913;SDS011;4492;48.736;9.092;2023-02-01T11:25:59;7.27;;;1.70;;
8913;SDS011;4492;48.736;9.092;2023-02-01T11:28:31;9.93;;;2.47;;
8913;SDS011;4492;48.736;9.092;2023-02-01T11:31:02;10.00;;;2.00;;
8913;SDS011;4492;48.736;9.092;2023-02-01T11:33:33;9.87;;;1.50;;
8913;SDS011;4492;48.736;9.092;2023-02-01T11:36:07;8.93;;;1.70;;
8913;SDS011;4492;48.736;9.092;2023-02-01T11:38:37;8.27;;;1.93;;
8913;SDS011;4492;48.736;9.092;2023-02-01T11:41:21;6.73;;;1.47;;
8913;SDS011;4492;48.736;9.092;2023-02-01T11:43:52;9.23;;;1.50;;
8913;SDS011;4492;48.736;9.092;2023-02-01T11:46:24;8.03;;;1.90;;
8913;SDS011;4492;48.736;9.092;2023-02-01T11:49:10;8.60;;;2.17;;
8913;SDS011;4492;48.736;9.092;2023-02-01T11:51:46;7.73;;;1.80;;
8913;SDS011;4492;48.736;9.092;2023-02-01T11:54:35;7.50;;;1.70;;
8913;SDS011;4492;48.736;9.092;2023-02-01T11:57:22;8.73;;;2.00;;
8913;SDS011;4492;48.736;9.092;2023-02-01T12:02:53;11.07;;;1.70;;
8913;SDS011;4492;48.736;9.092;2023-02-01T12:05:37;8.00;;;1.70;;
8913;SDS011;4492;48.736;9.092;2023-02-01T12:08:24;6.90;;;1.80;;
8913;SDS011;4492;48.736;9.092;2023-02-01T12:11:11;7.40;;;1.70;;
8913;SDS011;4492;48.736;9.092;2023-02-01T12:13:52;12.73;;;2.00;;
8913;SDS011;4492;48.736;9.092;2023-02-01T12:19:03;4.60;;;1.57;;
8913;SDS011;4492;48.736;9.092;2023-02-01T12:24:35;13.30;;;2.23;;
8913;SDS011;4492;48.736;9.092;2023-02-01T12:32:46;9.77;;;1.73;;
8913;SDS011;4492;48.736;9.092;2023-02-01T12:35:38;10.03;;;1.93;;
8913;SDS011;4492;48.736;9.092;2023-02-01T12:40:46;8.93;;;1.77;;
8913;SDS011;4492;48.736;9.092;2023-02-01T12:43:16;7.47;;;1.80;;
8913;SDS011;4492;48.736;9.092;2023-02-01T12:45:52;5.67;;;1.93;;
8913;SDS011;4492;48.736;9.092;2023-02-01T12:48:40;7.23;;;1.57;;
8913;SDS011;4492;48.736;9.092;2023-02-01T12:51:19;8.60;;;1.87;;
8913;SDS011;4492;48.736;9.092;2023-02-01T12:54:02;14.33;;;2.33;;
8913;SDS011;4492;48.736;9.092;2023-02-01T12:56:52;8.17;;;2.00;;
8913;SDS011;4492;48.736;9.092;2023-02-01T12:59:26;7.50;;;1.40;;
8913;SDS011;4492;48.736;9.092;2023-02-01T13:02:21;8.07;;;1.87;;
8913;SDS011;4492;48.736;9.092;2023-02-01T13:05:11;8.27;;;1.60;;
8913;SDS011;4492;48.736;9.092;2023-02-01T13:07:38;9.00;;;1.80;;
8913;SDS011;4492;48.736;9.092;2023-02-01T13:13:11;8.47;;;1.97;;
8913;SDS011;4492;48.736;9.092;2023-02-01T13:18:37;5.43;;;1.93;;
8913;SDS011;4492;48.736;9.092;2023-02-01T13:21:06;11.03;;;1.83;;
8913;SDS011;4492;48.736;9.092;2023-02-01T13:23:38;10.53;;;1.73;;
8913;SDS011;4492;48.736;9.092;2023-02-01T13:26:05;9.17;;;1.80;;
8913;SDS011;4492;48.736;9.092;2023-02-01T13:29:14;7.33;;;1.63;;
8913;SDS011;4492;48.736;9.092;2023-02-01T13:40:05;6.13;;;1.70;;
8913;SDS011;4492;48.736;9.092;2023-02-01T13:42:55;9.73;;;1.83;;
8913;SDS011;4492;48.736;9.092;2023-02-01T13:45:33;4.23;;;1.70;;
8913;SDS011;4492;48.736;9.092;2023-02-01T13:48:03;7.97;;;1.93;;
8913;SDS011;4492;48.736;9.092;2023-02-01T13:53:13;8.77;;;1.47;;
8913;SDS011;4492;48.736;9.092;2023-02-01T13:56:01;10.30;;;1.90;;
8913;SDS011;4492;48.736;9.092;2023-02-01T13:58:36;8.20;;;1.77;;
8913;SDS011;4492;48.736;9.092;2023-02-01T14:03:51;4.87;;;1.47;;
8913;SDS011;4492;48.736;9.092;2023-02-01T14:11:54;6.60;;;1.60;;
8913;SDS011;4492;48.736;9.092;2023-02-01T14:19:23;8.47;;;1.90;;
8913;SDS011;4492;48.736;9.092;2023-02-01T14:21:51;10.83;;;1.73;;
8913;SDS011;4492;48.736;9.092;2023-02-01T14:24:27;6.80;;;1.70;;
8913;SDS011;4492;48.736;9.092;2023-02-01T14:26:58;9.57;;;1.67;;
8913;SDS011;4492;48.736;9.092;2023-02-01T14:29:40;5.40;;;1.67;;
8913;SDS011;4492;48.736;9.092;2023-02-01T14:35:19;6.63;;;1.60;;
8913;SDS011;4492;48.736;9.092;2023-02-01T14:37:52;12.10;;;1.73;;
8913;SDS011;4492;48.736;9.092;2023-02-01T14:40:24;5.90;;;1.40;;
8913;SDS011;4492;48.736;9.092;2023-02-01T14:42:52;11.83;;;2.00;;
8913;SDS011;4492;48.736;9.092;2023-02-01T14:47:49;10.23;;;1.83;;
8913;SDS011;4492;48.736;9.092;2023-02-01T15:01:30;6.37;;;1.80;;
8913;SDS011;4492;48.736;9.092;2023-02-01T15:06:47;5.00;;;1.60;;
8913;SDS011;4492;48.736;9.092;2023-02-01T15:09:35;6.50;;;2.00;;
8913;SDS011;4492;48.736;9.092;2023-02-01T15:12:04;10.60;;;2.13;;
8913;SDS011;4492;48.736;9.092;2023-02-01T15:14:35;9.23;;;2.00;;
8913;SDS011;4492;48.736;9.092;2023-02-01T15:17:16;8.87;;;2.13;;
8913;SDS011;4492;48.736;9.092;2023-02-01T15:19:56;11.97;;;2.23;;
8913;SDS011;4492;48.736;9.092;2023-02-01T15:22:23;10.00;;;2.27;;
8913;SDS011;4492;48.736;9.092;2023-02-01T15:24:54;5.17;;;1.73;;
8913;SDS011;4492;48.736;9.092;2023-02-01T15:27:21;8.90;;;1.73;;
8913;SDS011;4492;48.736;9.092;2023-02-01T15:29:47;13.00;;;2.07;;
8913;SDS011;4492;48.736;9.092;2023-02-01T15:32:32;8.67;;;1.60;;
8913;SDS011;4492;48.736;9.092;2023-02-01T15:35:30;7.73;;;1.87;;
8913;SDS011;4492;48.736;9.092;2023-02-01T15:38:18;8.70;;;1.53;;
8913;SDS011;4492;48.736;9.092;2023-02-01T15:41:00;8.43;;;2.30;;
8913;SDS011;4492;48.736;9.092;2023-02-01T15:44:21;3.80;;;1.23;;
8913;SDS011;4492;48.736;9.092;2023-02-01T15:46:36;5.13;;;1.43;;
8913;SDS011;4492;48.736;9.092;2023-02-01T15:51:47;10.30;;;1.57;;
8913;SDS011;4492;48.736;9.092;2023-02-01T15:54:16;11.47;;;2.00;;
8913;SDS011;4492;48.736;9.092;2023-02-01T15:56:52;10.60;;;2.03;;
8913;SDS011;4492;48.736;9.092;2023-02-01T15:59:20;7.90;;;1.73;;
8913;SDS011;4492;48.736;9.092;2023-02-01T16:01:48;9.37;;;1.93;;
8913;SDS011;4492;48.736;9.092;2023-02-01T16:04:17;8.07;;;1.67;;
8913;SDS011;4492;48.736;9.092;2023-02-01T16:06:54;6.10;;;1.70;;
8913;SDS011;4492;48.736;9.092;2023-02-01T16:09:39;6.47;;;1.37;;
8913;SDS011;4492;48.736;9.092;2023-02-01T16:12:23;8.07;;;1.83;;
8913;SDS011;4492;48.736;9.092;2023-02-01T16:14:55;8.57;;;1.70;;
8913;SDS011;4492;48.736;9.092;2023-02-01T16:17:20;5.00;;;1.27;;
8913;SDS011;4492;48.736;9.092;2023-02-01T16:19:46;8.23;;;1.90;;
8913;SDS011;4492;48.736;9.092;2023-02-01T16:22:11;9.30;;;1.80;;
8913;SDS011;4492;48.736;9.092;2023-02-01T16:24:37;8.90;;;1.77;;
8913;SDS011;4492;48.736;9.092;2023-02-01T16:27:02;10.83;;;2.10;;
8913;SDS011;4492;48.736;9.092;2023-02-01T16:29:30;6.10;;;1.20;;
8913;SDS011;4492;48.736;9.092;2023-02-01T16:31:55;9.97;;;1.53;;
8913;SDS011;4492;48.736;9.092;2023-02-01T16:34:21;8.80;;;1.80;;
8913;SDS011;4492;48.736;9.092;2023-02-01T16:36:47;7.27;;;1.67;;
8913;SDS011;4492;48.736;9.092;2023-02-01T16:39:17;6.23;;;1.50;;
8913;SDS011;4492;48.736;9.092;2023-02-01T16:41:44;7.83;;;2.10;;
8913;SDS011;4492;48.736;9.092;2023-02-01T16:44:13;10.13;;;2.03;;
8913;SDS011;4492;48.736;9.092;2023-02-01T16:46:39;4.77;;;1.90;;
8913;SDS011;4492;48.736;9.092;2023-02-01T16:49:08;3.50;;;1.70;;
8913;SDS011;4492;48.736;9.092;2023-02-01T16:51:50;4.83;;;1.33;;
8913;SDS011;4492;48.736;9.092;2023-02-01T16:54:20;7.47;;;1.53;;
8913;SDS011;4492;48.736;9.092;2023-02-01T16:56:46;3.50;;;1.47;;
8913;SDS011;4492;48.736;9.092;2023-02-01T16:59:11;6.47;;;1.77;;
8913;SDS011;4492;48.736;9.092;2023-02-01T17:01:37;5.10;;;1.70;;
8913;SDS011;4492;48.736;9.092;2023-02-01T17:04:03;8.40;;;1.87;;
8913;SDS011;4492;48.736;9.092;2023-02-01T17:06:29;6.90;;;2.00;;
8913;SDS011;4492;48.736;9.092;2023-02-01T17:08:58;7.77;;;2.70;;
8913;SDS011;4492;48.736;9.092;2023-02-01T17:11:24;7.73;;;2.23;;
8913;SDS011;4492;48.736;9.092;2023-02-01T17:13:51;7.57;;;2.00;;
8913;SDS011;4492;48.736;9.092;2023-02-01T17:18:43;6.33;;;1.77;;
8913;SDS011;4492;48.736;9.092;2023-02-01T17:21:11;6.40;;;2.17;;
8913;SDS011;4492;48.736;9.092;2023-02-01T17:23:37;4.80;;;1.70;;
8913;SDS011;4492;48.736;9.092;2023-02-01T17:26:03;12.87;;;2.30;;
8913;SDS011;4492;48.736;9.092;2023-02-01T17:28:28;12.93;;;2.73;;
8913;SDS011;4492;48.736;9.092;2023-02-01T17:30:54;5.33;;;1.77;;
8913;SDS011;4492;48.736;9.092;2023-02-01T17:33:30;9.50;;;1.77;;
8913;SDS011;4492;48.736;9.092;2023-02-01T17:35:59;8.23;;;1.87;;
8913;SDS011;4492;48.736;9.092;2023-02-01T17:38:25;8.20;;;1.80;;
8913;SDS011;4492;48.736;9.092;2023-02-01T17:40:51;15.33;;;2.40;;
8913;SDS011;4492;48.736;9.092;2023-02-01T17:43:19;6.10;;;1.80;;